sensor_id;sensor_type;location;lat;lon;timestamp;P1;durP1;ratioP1;P2;durP2;ratioP2
50309;SDS011;36207;51.850;21.698;2023-04-19T00:01:04;11.10;;;7.00;;
50309;SDS011;36207;51.850;21.698;2023-04-19T00:03:30;10.90;;;7.40;;
50309;SDS011;36207;51.850;21.698;2023-04-19T00:05:56;10.60;;;7.30;;
50309;SDS011;36207;51.850;21.698;2023-04-19T00:08:25;13.10;;;7.70;;
50309;SDS011;36207;51.850;21.698;2023-04-19T00:10:51;11.50;;;7.80;;
50309;SDS011;36207;51.850;21.698;2023-04-19T00:13:17;13.10;;;7.80;;
50309;SDS011;36207;51.850;21.698;2023-04-19T00:15:43;11.30;;;7.80;;
50309;SDS011;36207;51.850;21.698;2023-04-19T00:18:08;9.70;;;7.60;;
50309;SDS011;36207;51.850;21.698;2023-04-19T00:20:34;10.50;;;7.20;;
50309;SDS011;36207;51.850;21.698;2023-04-19T00:23:00;11.30;;;7.80;;
50309;SDS011;36207;51.850;21.698;2023-04-19T00:25:26;10.90;;;7.80;;
50309;SDS011;36207;51.850;21.698;2023-04-19T00:27:54;10.90;;;7.80;;
50309;SDS011;36207;51.850;21.698;2023-04-19T00:30:20;10.40;;;7.70;;
50309;SDS011;36207;51.850;21.698;2023-04-19T00:32:46;12.30;;;8.00;;
50309;SDS011;36207;51.850;21.698;2023-04-19T00:35:11;10.20;;;7.70;;
50309;SDS011;36207;51.850;21.698;2023-04-19T00:37:40;9.70;;;7.40;;
50309;SDS011;36207;51.850;21.698;2023-04-19T00:40:06;10.20;;;7.40;;
50309;SDS011;36207;51.850;21.698;2023-04-19T00:42:33;10.60;;;7.50;;
50309;SDS011;36207;51.850;21.698;2023-04-19T00:44:59;11.50;;;7.80;;
50309;SDS011;36207;51.850;21.698;2023-04-19T00:47:24;11.30;;;8.20;;
50309;SDS011;36207;51.850;21.698;2023-04-19T00:49:50;11.00;;;7.90;;
50309;SDS011;36207;51.850;21.698;2023-04-19T00:52:16;10.80;;;7.90;;
50309;SDS011;36207;51.850;21.698;2023-04-19T00:54:42;11.90;;;7.80;;
50309;SDS011;36207;51.850;21.698;2023-04-19T00:57:10;11.00;;;7.80;;
50309;SDS011;36207;51.850;21.698;2023-04-19T00:59:36;10.10;;;7.60;;
50309;SDS011;36207;51.850;21.698;2023-04-19T01:02:03;10.50;;;7.60;;
50309;SDS011;36207;51.850;21.698;2023-04-19T01:04:29;11.10;;;8.20;;
50309;SDS011;36207;51.850;21.698;2023-04-19T01:06:55;12.20;;;8.10;;
50309;SDS011;36207;51.850;21.698;2023-04-19T01:09:21;11.80;;;7.80;;
50309;SDS011;36207;51.850;21.698;2023-04-19T01:11:47;9.50;;;7.60;;
50309;SDS011;36207;51.850;21.698;2023-04-19T01:14:15;10.70;;;7.60;;
50309;SDS011;36207;51.850;21.698;2023-04-19T01:16:41;10.60;;;7.80;;
50309;SDS011;36207;51.850;21.698;2023-04-19T01:19:07;11.70;;;8.40;;
50309;SDS011;36207;51.850;21.698;2023-04-19T01:21:35;11.10;;;7.90;;
50309;SDS011;36207;51.850;21.698;2023-04-19T01:24:03;10.70;;;7.80;;
50309;SDS011;36207;51.850;21.698;2023-04-19T01:26:29;11.50;;;7.70;;
50309;SDS011;36207;51.850;21.698;2023-04-19T01:28:56;10.30;;;7.80;;
50309;SDS011;36207;51.850;21.698;2023-04-19T01:31:25;11.60;;;7.90;;
50309;SDS011;36207;51.850;21.698;2023-04-19T01:33:50;11.20;;;7.80;;
50309;SDS011;36207;51.850;21.698;2023-04-19T01:36:16;10.10;;;7.70;;
50309;SDS011;36207;51.850;21.698;2023-04-19T01:38:42;11.90;;;7.70;;
50309;SDS011;36207;51.850;21.698;2023-04-19T01:41:08;9.50;;;7.30;;
50309;SDS011;36207;51.850;21.698;2023-04-19T01:43:34;11.50;;;7.80;;
50309;SDS011;36207;51.850;21.698;2023-04-19T01:46:00;10.40;;;7.60;;
50309;SDS011;36207;51.850;21.698;2023-04-19T01:48:26;10.80;;;7.40;;
50309;SDS011;36207;51.850;21.698;2023-04-19T01:50:52;11.00;;;7.50;;
50309;SDS011;36207;51.850;21.698;2023-04-19T01:53:18;10.20;;;7.40;;
50309;SDS011;36207;51.850;21.698;2023-04-19T01:55:44;9.90;;;7.40;;
50309;SDS011;36207;51.850;21.698;2023-04-19T01:58:10;10.00;;;7.40;;
50309;SDS011;36207;51.850;21.698;2023-04-19T02:00:36;10.40;;;8.00;;
50309;SDS011;36207;51.850;21.698;2023-04-19T02:03:01;11.10;;;7.90;;
50309;SDS011;36207;51.850;21.698;2023-04-19T02:05:27;11.30;;;7.50;;
50309;SDS011;36207;51.850;21.698;2023-04-19T02:07:53;9.90;;;7.20;;
50309;SDS011;36207;51.850;21.698;2023-04-19T02:10:19;11.00;;;7.30;;
50309;SDS011;36207;51.850;21.698;2023-04-19T02:12:45;10.00;;;7.20;;
50309;SDS011;36207;51.850;21.698;2023-04-19T02:15:11;11.70;;;7.50;;
50309;SDS011;36207;51.850;21.698;2023-04-19T02:17:37;10.80;;;7.80;;
50309;SDS011;36207;51.850;21.698;2023-04-19T02:20:03;10.40;;;7.90;;
50309;SDS011;36207;51.850;21.698;2023-04-19T02:22:30;9.70;;;7.10;;
50309;SDS011;36207;51.850;21.698;2023-04-19T02:24:56;10.10;;;6.90;;
50309;SDS011;36207;51.850;21.698;2023-04-19T02:27:22;12.80;;;7.70;;
50309;SDS011;36207;51.850;21.698;2023-04-19T02:29:47;11.00;;;7.80;;
50309;SDS011;36207;51.850;21.698;2023-04-19T02:32:13;10.30;;;7.70;;
50309;SDS011;36207;51.850;21.698;2023-04-19T02:34:39;10.00;;;7.60;;
50309;SDS011;36207;51.850;21.698;2023-04-19T02:37:05;10.10;;;7.60;;
50309;SDS011;36207;51.850;21.698;2023-04-19T02:39:31;11.80;;;8.00;;
50309;SDS011;36207;51.850;21.698;2023-04-19T02:41:58;13.10;;;8.00;;
50309;SDS011;36207;51.850;21.698;2023-04-19T02:44:25;9.10;;;6.90;;
50309;SDS011;36207;51.850;21.698;2023-04-19T02:46:52;10.50;;;7.30;;
50309;SDS011;36207;51.850;21.698;2023-04-19T02:49:18;10.60;;;7.40;;
50309;SDS011;36207;51.850;21.698;2023-04-19T02:51:45;11.10;;;7.80;;
50309;SDS011;36207;51.850;21.698;2023-04-19T02:54:11;9.70;;;7.20;;
50309;SDS011;36207;51.850;21.698;2023-04-19T02:56:38;11.00;;;7.70;;
50309;SDS011;36207;51.850;21.698;2023-04-19T02:59:04;12.20;;;7.40;;
50309;SDS011;36207;51.850;21.698;2023-04-19T03:01:31;10.40;;;7.60;;
50309;SDS011;36207;51.850;21.698;2023-04-19T03:03:57;10.20;;;7.00;;
50309;SDS011;36207;51.850;21.698;2023-04-19T03:06:23;10.10;;;7.00;;
50309;SDS011;36207;51.850;21.698;2023-04-19T03:08:49;10.30;;;7.20;;
50309;SDS011;36207;51.850;21.698;2023-04-19T03:11:15;9.10;;;6.90;;
50309;SDS011;36207;51.850;21.698;2023-04-19T03:13:42;11.30;;;7.30;;
50309;SDS011;36207;51.850;21.698;2023-04-19T03:16:08;11.50;;;7.90;;
50309;SDS011;36207;51.850;21.698;2023-04-19T03:18:34;10.30;;;7.30;;
50309;SDS011;36207;51.850;21.698;2023-04-19T03:21:01;11.40;;;7.10;;
50309;SDS011;36207;51.850;21.698;2023-04-19T03:23:27;8.90;;;7.00;;
50309;SDS011;36207;51.850;21.698;2023-04-19T03:25:53;9.70;;;7.20;;
50309;SDS011;36207;51.850;21.698;2023-04-19T03:28:19;10.00;;;6.80;;
50309;SDS011;36207;51.850;21.698;2023-04-19T03:30:45;10.00;;;7.10;;
50309;SDS011;36207;51.850;21.698;2023-04-19T03:33:11;9.90;;;7.10;;
50309;SDS011;36207;51.850;21.698;2023-04-19T03:35:37;10.40;;;7.40;;
50309;SDS011;36207;51.850;21.698;2023-04-19T03:38:03;10.50;;;7.30;;
50309;SDS011;36207;51.850;21.698;2023-04-19T03:40:29;10.30;;;7.30;;
50309;SDS011;36207;51.850;21.698;2023-04-19T03:42:57;9.90;;;7.00;;
50309;SDS011;36207;51.850;21.698;2023-04-19T03:45:23;11.20;;;7.10;;
50309;SDS011;36207;51.850;21.698;2023-04-19T03:47:49;9.90;;;7.50;;
50309;SDS011;36207;51.850;21.698;2023-04-19T03:50:15;9.60;;;7.00;;
50309;SDS011;36207;51.850;21.698;2023-04-19T03:52:41;9.60;;;7.10;;
50309;SDS011;36207;51.850;21.698;2023-04-19T03:55:07;12.20;;;7.90;;
50309;SDS011;36207;51.850;21.698;2023-04-19T03:57:34;10.60;;;7.60;;
50309;SDS011;36207;51.850;21.698;2023-04-19T04:00:00;10.10;;;7.50;;
50309;SDS011;36207;51.850;21.698;2023-04-19T04:02:26;10.60;;;6.70;;
50309;SDS011;36207;51.850;21.698;2023-04-19T04:04:55;9.80;;;6.90;;
50309;SDS011;36207;51.850;21.698;2023-04-19T04:07:21;12.70;;;7.40;;
50309;SDS011;36207;51.850;21.698;2023-04-19T04:09:48;11.20;;;7.70;;
50309;SDS011;36207;51.850;21.698;2023-04-19T04:12:14;10.90;;;7.60;;
50309;SDS011;36207;51.850;21.698;2023-04-19T04:14:40;9.50;;;6.90;;
50309;SDS011;36207;51.850;21.698;2023-04-19T04:17:06;12.30;;;8.20;;
50309;SDS011;36207;51.850;21.698;2023-04-19T04:19:31;12.50;;;7.60;;
50309;SDS011;36207;51.850;21.698;2023-04-19T04:21:57;10.90;;;7.40;;
50309;SDS011;36207;51.850;21.698;2023-04-19T04:24:23;11.20;;;7.20;;
50309;SDS011;36207;51.850;21.698;2023-04-19T04:26:50;11.00;;;7.70;;
50309;SDS011;36207;51.850;21.698;2023-04-19T04:29:16;10.10;;;7.60;;
50309;SDS011;36207;51.850;21.698;2023-04-19T04:31:42;10.10;;;7.20;;
50309;SDS011;36207;51.850;21.698;2023-04-19T04:34:08;11.30;;;7.20;;
50309;SDS011;36207;51.850;21.698;2023-04-19T04:36:34;10.40;;;7.30;;
50309;SDS011;36207;51.850;21.698;2023-04-19T04:39:04;11.70;;;6.60;;
50309;SDS011;36207;51.850;21.698;2023-04-19T04:41:32;11.00;;;7.40;;
50309;SDS011;36207;51.850;21.698;2023-04-19T04:44:00;10.10;;;7.10;;
50309;SDS011;36207;51.850;21.698;2023-04-19T04:46:30;11.20;;;7.40;;
50309;SDS011;36207;51.850;21.698;2023-04-19T04:48:56;12.20;;;7.30;;
50309;SDS011;36207;51.850;21.698;2023-04-19T04:51:22;9.50;;;7.20;;
50309;SDS011;36207;51.850;21.698;2023-04-19T04:53:48;10.90;;;7.40;;
50309;SDS011;36207;51.850;21.698;2023-04-19T04:56:14;9.90;;;7.50;;
50309;SDS011;36207;51.850;21.698;2023-04-19T04:58:40;10.80;;;7.70;;
50309;SDS011;36207;51.850;21.698;2023-04-19T05:01:06;10.90;;;7.60;;
50309;SDS011;36207;51.850;21.698;2023-04-19T05:03:31;10.60;;;7.90;;
50309;SDS011;36207;51.850;21.698;2023-04-19T05:05:57;11.60;;;7.70;;
50309;SDS011;36207;51.850;21.698;2023-04-19T05:08:26;10.10;;;7.60;;
50309;SDS011;36207;51.850;21.698;2023-04-19T05:10:52;12.00;;;7.60;;
50309;SDS011;36207;51.850;21.698;2023-04-19T05:13:21;11.00;;;7.90;;
50309;SDS011;36207;51.850;21.698;2023-04-19T05:15:47;11.50;;;8.10;;
50309;SDS011;36207;51.850;21.698;2023-04-19T05:18:13;10.70;;;7.80;;
50309;SDS011;36207;51.850;21.698;2023-04-19T05:20:39;10.80;;;7.90;;
50309;SDS011;36207;51.850;21.698;2023-04-19T05:23:05;11.30;;;8.10;;
50309;SDS011;36207;51.850;21.698;2023-04-19T05:25:30;9.90;;;7.60;;
50309;SDS011;36207;51.850;21.698;2023-04-19T05:27:56;11.30;;;7.60;;
50309;SDS011;36207;51.850;21.698;2023-04-19T05:30:22;11.10;;;7.90;;
50309;SDS011;36207;51.850;21.698;2023-04-19T05:32:48;11.90;;;7.70;;
50309;SDS011;36207;51.850;21.698;2023-04-19T05:35:14;11.30;;;7.90;;
50309;SDS011;36207;51.850;21.698;2023-04-19T05:37:40;12.50;;;8.20;;
50309;SDS011;36207;51.850;21.698;2023-04-19T05:40:06;13.00;;;8.20;;
50309;SDS011;36207;51.850;21.698;2023-04-19T05:42:36;13.10;;;8.30;;
50309;SDS011;36207;51.850;21.698;2023-04-19T05:45:03;12.30;;;8.00;;
50309;SDS011;36207;51.850;21.698;2023-04-19T05:47:30;10.80;;;8.00;;
50309;SDS011;36207;51.850;21.698;2023-04-19T05:49:56;11.30;;;8.30;;
50309;SDS011;36207;51.850;21.698;2023-04-19T05:52:22;11.80;;;8.10;;
50309;SDS011;36207;51.850;21.698;2023-04-19T05:54:47;14.10;;;8.00;;
50309;SDS011;36207;51.850;21.698;2023-04-19T05:57:13;11.90;;;7.70;;
50309;SDS011;36207;51.850;21.698;2023-04-19T05:59:39;12.70;;;8.50;;
50309;SDS011;36207;51.850;21.698;2023-04-19T06:02:05;16.40;;;8.70;;
50309;SDS011;36207;51.850;21.698;2023-04-19T06:04:32;11.00;;;8.00;;
50309;SDS011;36207;51.850;21.698;2023-04-19T06:06:57;11.60;;;8.60;;
50309;SDS011;36207;51.850;21.698;2023-04-19T06:09:23;12.90;;;8.80;;
50309;SDS011;36207;51.850;21.698;2023-04-19T06:11:49;11.90;;;8.70;;
50309;SDS011;36207;51.850;21.698;2023-04-19T06:14:15;13.10;;;8.90;;
50309;SDS011;36207;51.850;21.698;2023-04-19T06:16:41;11.90;;;8.80;;
50309;SDS011;36207;51.850;21.698;2023-04-19T06:19:07;12.90;;;8.70;;
50309;SDS011;36207;51.850;21.698;2023-04-19T06:21:33;11.40;;;8.60;;
50309;SDS011;36207;51.850;21.698;2023-04-19T06:23:59;11.60;;;8.50;;
50309;SDS011;36207;51.850;21.698;2023-04-19T06:26:25;12.40;;;8.60;;
50309;SDS011;36207;51.850;21.698;2023-04-19T06:28:51;12.70;;;9.00;;
50309;SDS011;36207;51.850;21.698;2023-04-19T06:31:17;12.40;;;9.10;;
50309;SDS011;36207;51.850;21.698;2023-04-19T06:33:43;13.40;;;9.20;;
50309;SDS011;36207;51.850;21.698;2023-04-19T06:36:09;14.00;;;9.00;;
50309;SDS011;36207;51.850;21.698;2023-04-19T06:38:35;11.50;;;8.80;;
50309;SDS011;36207;51.850;21.698;2023-04-19T06:41:03;12.80;;;9.40;;
50309;SDS011;36207;51.850;21.698;2023-04-19T06:43:29;13.30;;;9.70;;
50309;SDS011;36207;51.850;21.698;2023-04-19T06:45:58;12.70;;;9.10;;
50309;SDS011;36207;51.850;21.698;2023-04-19T06:48:25;13.00;;;9.30;;
50309;SDS011;36207;51.850;21.698;2023-04-19T06:50:52;12.20;;;9.00;;
50309;SDS011;36207;51.850;21.698;2023-04-19T06:53:19;12.30;;;9.80;;
50309;SDS011;36207;51.850;21.698;2023-04-19T06:55:45;12.00;;;9.00;;
50309;SDS011;36207;51.850;21.698;2023-04-19T06:58:11;12.20;;;9.20;;
50309;SDS011;36207;51.850;21.698;2023-04-19T07:00:37;13.90;;;8.90;;
50309;SDS011;36207;51.850;21.698;2023-04-19T07:03:03;13.00;;;9.20;;
50309;SDS011;36207;51.850;21.698;2023-04-19T07:05:29;13.60;;;9.50;;
50309;SDS011;36207;51.850;21.698;2023-04-19T07:07:56;12.80;;;9.30;;
50309;SDS011;36207;51.850;21.698;2023-04-19T07:10:22;14.50;;;9.80;;
50309;SDS011;36207;51.850;21.698;2023-04-19T07:12:50;11.90;;;9.60;;
50309;SDS011;36207;51.850;21.698;2023-04-19T07:15:16;11.70;;;9.10;;
50309;SDS011;36207;51.850;21.698;2023-04-19T07:17:42;14.30;;;9.50;;
50309;SDS011;36207;51.850;21.698;2023-04-19T07:20:08;12.30;;;8.90;;
50309;SDS011;36207;51.850;21.698;2023-04-19T07:22:34;11.40;;;8.80;;
50309;SDS011;36207;51.850;21.698;2023-04-19T07:25:00;13.40;;;9.30;;
50309;SDS011;36207;51.850;21.698;2023-04-19T07:27:26;13.70;;;9.30;;
50309;SDS011;36207;51.850;21.698;2023-04-19T07:29:52;14.40;;;10.00;;
50309;SDS011;36207;51.850;21.698;2023-04-19T07:32:18;12.70;;;9.50;;
50309;SDS011;36207;51.850;21.698;2023-04-19T07:34:44;13.70;;;9.40;;
50309;SDS011;36207;51.850;21.698;2023-04-19T07:37:10;11.90;;;9.10;;
50309;SDS011;36207;51.850;21.698;2023-04-19T07:39:37;12.80;;;9.30;;
50309;SDS011;36207;51.850;21.698;2023-04-19T07:42:03;13.70;;;9.40;;
50309;SDS011;36207;51.850;21.698;2023-04-19T07:44:30;13.10;;;9.50;;
50309;SDS011;36207;51.850;21.698;2023-04-19T07:46:55;12.80;;;9.60;;
50309;SDS011;36207;51.850;21.698;2023-04-19T07:49:21;13.80;;;9.80;;
50309;SDS011;36207;51.850;21.698;2023-04-19T07:51:47;12.90;;;9.30;;
50309;SDS011;36207;51.850;21.698;2023-04-19T07:54:13;13.10;;;9.80;;
50309;SDS011;36207;51.850;21.698;2023-04-19T07:56:40;12.70;;;9.80;;
50309;SDS011;36207;51.850;21.698;2023-04-19T07:59:06;12.60;;;9.70;;
50309;SDS011;36207;51.850;21.698;2023-04-19T08:01:32;13.00;;;10.00;;
50309;SDS011;36207;51.850;21.698;2023-04-19T08:03:58;14.60;;;10.20;;
50309;SDS011;36207;51.850;21.698;2023-04-19T08:06:24;15.60;;;10.70;;
50309;SDS011;36207;51.850;21.698;2023-04-19T08:08:51;14.50;;;10.00;;
50309;SDS011;36207;51.850;21.698;2023-04-19T08:11:17;14.30;;;10.40;;
50309;SDS011;36207;51.850;21.698;2023-04-19T08:13:43;14.80;;;10.70;;
50309;SDS011;36207;51.850;21.698;2023-04-19T08:16:08;13.60;;;10.10;;
50309;SDS011;36207;51.850;21.698;2023-04-19T08:18:34;15.50;;;10.40;;
50309;SDS011;36207;51.850;21.698;2023-04-19T08:21:00;13.70;;;10.00;;
50309;SDS011;36207;51.850;21.698;2023-04-19T08:23:26;16.50;;;11.00;;
50309;SDS011;36207;51.850;21.698;2023-04-19T08:25:53;15.60;;;10.70;;
50309;SDS011;36207;51.850;21.698;2023-04-19T08:28:18;16.40;;;11.20;;
50309;SDS011;36207;51.850;21.698;2023-04-19T08:30:44;14.90;;;10.50;;
50309;SDS011;36207;51.850;21.698;2023-04-19T08:33:10;14.80;;;10.60;;
50309;SDS011;36207;51.850;21.698;2023-04-19T08:35:37;15.90;;;10.70;;
50309;SDS011;36207;51.850;21.698;2023-04-19T08:38:05;14.50;;;10.70;;
50309;SDS011;36207;51.850;21.698;2023-04-19T08:40:32;16.50;;;10.20;;
50309;SDS011;36207;51.850;21.698;2023-04-19T08:42:58;14.40;;;10.60;;
50309;SDS011;36207;51.850;21.698;2023-04-19T08:45:25;15.30;;;10.40;;
50309;SDS011;36207;51.850;21.698;2023-04-19T08:47:52;13.60;;;10.10;;
50309;SDS011;36207;51.850;21.698;2023-04-19T08:50:19;13.60;;;10.20;;
50309;SDS011;36207;51.850;21.698;2023-04-19T08:52:48;14.90;;;10.10;;
50309;SDS011;36207;51.850;21.698;2023-04-19T08:55:15;15.90;;;10.80;;
50309;SDS011;36207;51.850;21.698;2023-04-19T08:57:41;14.80;;;10.90;;
50309;SDS011;36207;51.850;21.698;2023-04-19T09:00:07;13.40;;;10.30;;
50309;SDS011;36207;51.850;21.698;2023-04-19T09:02:48;14.00;;;10.50;;
50309;SDS011;36207;51.850;21.698;2023-04-19T09:05:16;15.20;;;10.60;;
50309;SDS011;36207;51.850;21.698;2023-04-19T09:07:43;13.30;;;10.10;;
50309;SDS011;36207;51.850;21.698;2023-04-19T09:10:11;14.60;;;10.10;;
50309;SDS011;36207;51.850;21.698;2023-04-19T09:12:40;13.30;;;10.40;;
50309;SDS011;36207;51.850;21.698;2023-04-19T09:15:07;15.10;;;10.10;;
50309;SDS011;36207;51.850;21.698;2023-04-19T09:17:37;15.10;;;10.10;;
50309;SDS011;36207;51.850;21.698;2023-04-19T09:20:05;13.50;;;10.30;;
50309;SDS011;36207;51.850;21.698;2023-04-19T09:22:31;15.30;;;10.40;;
50309;SDS011;36207;51.850;21.698;2023-04-19T09:24:58;13.30;;;10.00;;
50309;SDS011;36207;51.850;21.698;2023-04-19T09:27:29;12.90;;;10.00;;
50309;SDS011;36207;51.850;21.698;2023-04-19T09:30:00;12.40;;;9.80;;
50309;SDS011;36207;51.850;21.698;2023-04-19T09:32:27;14.40;;;10.40;;
50309;SDS011;36207;51.850;21.698;2023-04-19T09:34:55;14.30;;;9.70;;
50309;SDS011;36207;51.850;21.698;2023-04-19T09:37:23;12.70;;;9.50;;
50309;SDS011;36207;51.850;21.698;2023-04-19T09:39:51;12.50;;;9.20;;
50309;SDS011;36207;51.850;21.698;2023-04-19T09:42:17;16.00;;;9.90;;
50309;SDS011;36207;51.850;21.698;2023-04-19T09:44:54;13.00;;;9.30;;
50309;SDS011;36207;51.850;21.698;2023-04-19T09:47:22;11.40;;;9.60;;
50309;SDS011;36207;51.850;21.698;2023-04-19T09:52:31;11.50;;;8.60;;
50309;SDS011;36207;51.850;21.698;2023-04-19T09:54:59;12.20;;;9.10;;
50309;SDS011;36207;51.850;21.698;2023-04-19T09:57:26;13.80;;;8.90;;
50309;SDS011;36207;51.850;21.698;2023-04-19T09:59:52;12.70;;;9.20;;
50309;SDS011;36207;51.850;21.698;2023-04-19T10:02:18;10.80;;;8.60;;
50309;SDS011;36207;51.850;21.698;2023-04-19T10:04:45;11.80;;;9.00;;
50309;SDS011;36207;51.850;21.698;2023-04-19T10:07:11;14.60;;;10.30;;
50309;SDS011;36207;51.850;21.698;2023-04-19T10:09:37;16.60;;;11.40;;
50309;SDS011;36207;51.850;21.698;2023-04-19T10:12:03;11.20;;;9.10;;
50309;SDS011;36207;51.850;21.698;2023-04-19T10:14:32;20.10;;;13.20;;
50309;SDS011;36207;51.850;21.698;2023-04-19T10:17:00;19.30;;;12.60;;
50309;SDS011;36207;51.850;21.698;2023-04-19T10:19:27;12.70;;;9.50;;
50309;SDS011;36207;51.850;21.698;2023-04-19T10:21:54;22.70;;;13.80;;
50309;SDS011;36207;51.850;21.698;2023-04-19T10:24:21;45.60;;;21.50;;
50309;SDS011;36207;51.850;21.698;2023-04-19T10:32:39;30.40;;;17.20;;
50309;SDS011;36207;51.850;21.698;2023-04-19T10:35:16;16.70;;;11.60;;
50309;SDS011;36207;51.850;21.698;2023-04-19T10:43:19;9.80;;;7.90;;
50309;SDS011;36207;51.850;21.698;2023-04-19T10:45:45;12.40;;;8.40;;
50309;SDS011;36207;51.850;21.698;2023-04-19T10:50:58;11.00;;;8.10;;
50309;SDS011;36207;51.850;21.698;2023-04-19T11:01:40;11.10;;;8.00;;
50309;SDS011;36207;51.850;21.698;2023-04-19T11:04:08;11.10;;;7.90;;
50309;SDS011;36207;51.850;21.698;2023-04-19T11:06:36;11.50;;;8.00;;
50309;SDS011;36207;51.850;21.698;2023-04-19T11:09:03;11.00;;;7.90;;
50309;SDS011;36207;51.850;21.698;2023-04-19T11:11:34;12.00;;;8.30;;
50309;SDS011;36207;51.850;21.698;2023-04-19T11:14:00;11.00;;;7.80;;
50309;SDS011;36207;51.850;21.698;2023-04-19T11:16:29;12.10;;;8.00;;
50309;SDS011;36207;51.850;21.698;2023-04-19T11:18:55;14.30;;;8.30;;
50309;SDS011;36207;51.850;21.698;2023-04-19T11:21:21;17.00;;;7.80;;
50309;SDS011;36207;51.850;21.698;2023-04-19T11:23:48;11.50;;;7.90;;
50309;SDS011;36207;51.850;21.698;2023-04-19T11:26:29;13.10;;;7.80;;
50309;SDS011;36207;51.850;21.698;2023-04-19T11:28:55;11.70;;;8.70;;
50309;SDS011;36207;51.850;21.698;2023-04-19T11:31:24;12.30;;;9.20;;
50309;SDS011;36207;51.850;21.698;2023-04-19T11:33:50;12.90;;;9.50;;
50309;SDS011;36207;51.850;21.698;2023-04-19T11:36:16;10.70;;;8.50;;
50309;SDS011;36207;51.850;21.698;2023-04-19T11:38:46;12.90;;;9.00;;
50309;SDS011;36207;51.850;21.698;2023-04-19T11:41:12;11.60;;;8.70;;
50309;SDS011;36207;51.850;21.698;2023-04-19T11:43:38;11.90;;;8.40;;
50309;SDS011;36207;51.850;21.698;2023-04-19T11:46:06;11.40;;;8.80;;
50309;SDS011;36207;51.850;21.698;2023-04-19T11:48:33;13.40;;;8.80;;
50309;SDS011;36207;51.850;21.698;2023-04-19T11:51:00;11.20;;;9.10;;
50309;SDS011;36207;51.850;21.698;2023-04-19T11:53:26;11.40;;;8.70;;
50309;SDS011;36207;51.850;21.698;2023-04-19T11:55:54;13.70;;;8.90;;
50309;SDS011;36207;51.850;21.698;2023-04-19T11:58:33;11.20;;;8.80;;
50309;SDS011;36207;51.850;21.698;2023-04-19T12:01:14;11.90;;;8.70;;
50309;SDS011;36207;51.850;21.698;2023-04-19T12:03:45;12.70;;;9.00;;
50309;SDS011;36207;51.850;21.698;2023-04-19T12:06:16;12.00;;;8.80;;
50309;SDS011;36207;51.850;21.698;2023-04-19T12:08:47;12.60;;;9.10;;
50309;SDS011;36207;51.850;21.698;2023-04-19T12:11:14;13.00;;;9.10;;
50309;SDS011;36207;51.850;21.698;2023-04-19T12:13:43;11.80;;;9.40;;
50309;SDS011;36207;51.850;21.698;2023-04-19T12:16:10;15.40;;;9.80;;
50309;SDS011;36207;51.850;21.698;2023-04-19T12:18:43;13.00;;;9.80;;
50309;SDS011;36207;51.850;21.698;2023-04-19T12:21:28;12.40;;;9.00;;
50309;SDS011;36207;51.850;21.698;2023-04-19T12:24:00;14.00;;;9.40;;
50309;SDS011;36207;51.850;21.698;2023-04-19T12:26:27;12.50;;;9.50;;
50309;SDS011;36207;51.850;21.698;2023-04-19T12:28:54;13.60;;;9.50;;
50309;SDS011;36207;51.850;21.698;2023-04-19T12:31:21;14.10;;;10.30;;
50309;SDS011;36207;51.850;21.698;2023-04-19T12:33:47;15.00;;;9.10;;
50309;SDS011;36207;51.850;21.698;2023-04-19T12:36:14;12.30;;;8.70;;
50309;SDS011;36207;51.850;21.698;2023-04-19T12:38:40;18.70;;;9.70;;
50309;SDS011;36207;51.850;21.698;2023-04-19T12:41:06;12.50;;;9.70;;
50309;SDS011;36207;51.850;21.698;2023-04-19T12:43:32;14.30;;;9.40;;
50309;SDS011;36207;51.850;21.698;2023-04-19T12:45:59;12.70;;;9.60;;
50309;SDS011;36207;51.850;21.698;2023-04-19T12:48:25;14.10;;;9.70;;
50309;SDS011;36207;51.850;21.698;2023-04-19T12:50:51;13.50;;;10.00;;
50309;SDS011;36207;51.850;21.698;2023-04-19T12:53:18;12.20;;;9.90;;
50309;SDS011;36207;51.850;21.698;2023-04-19T12:55:44;13.40;;;10.10;;
50309;SDS011;36207;51.850;21.698;2023-04-19T12:58:12;12.70;;;9.90;;
50309;SDS011;36207;51.850;21.698;2023-04-19T13:00:38;11.90;;;9.80;;
50309;SDS011;36207;51.850;21.698;2023-04-19T13:03:04;13.90;;;10.10;;
50309;SDS011;36207;51.850;21.698;2023-04-19T13:05:30;13.80;;;9.80;;
50309;SDS011;36207;51.850;21.698;2023-04-19T13:07:56;12.40;;;9.60;;
50309;SDS011;36207;51.850;21.698;2023-04-19T13:10:22;12.30;;;9.70;;
50309;SDS011;36207;51.850;21.698;2023-04-19T13:12:48;11.50;;;9.70;;
50309;SDS011;36207;51.850;21.698;2023-04-19T13:15:14;12.70;;;10.10;;
50309;SDS011;36207;51.850;21.698;2023-04-19T13:17:40;11.90;;;9.50;;
50309;SDS011;36207;51.850;21.698;2023-04-19T13:20:06;13.60;;;9.60;;
50309;SDS011;36207;51.850;21.698;2023-04-19T13:22:32;12.40;;;9.90;;
50309;SDS011;36207;51.850;21.698;2023-04-19T13:24:58;13.20;;;9.30;;
50309;SDS011;36207;51.850;21.698;2023-04-19T13:27:24;12.90;;;9.60;;
50309;SDS011;36207;51.850;21.698;2023-04-19T13:29:50;13.20;;;9.50;;
50309;SDS011;36207;51.850;21.698;2023-04-19T13:32:16;13.30;;;9.30;;
50309;SDS011;36207;51.850;21.698;2023-04-19T13:34:42;10.90;;;9.00;;
50309;SDS011;36207;51.850;21.698;2023-04-19T13:37:08;11.50;;;9.40;;
50309;SDS011;36207;51.850;21.698;2023-04-19T13:39:34;13.00;;;9.60;;
50309;SDS011;36207;51.850;21.698;2023-04-19T13:42:00;12.20;;;9.10;;
50309;SDS011;36207;51.850;21.698;2023-04-19T13:44:26;15.10;;;10.40;;
50309;SDS011;36207;51.850;21.698;2023-04-19T13:46:53;12.90;;;9.70;;
50309;SDS011;36207;51.850;21.698;2023-04-19T13:49:19;13.70;;;9.30;;
50309;SDS011;36207;51.850;21.698;2023-04-19T13:51:45;16.00;;;10.90;;
50309;SDS011;36207;51.850;21.698;2023-04-19T13:54:11;14.80;;;7.30;;
50309;SDS011;36207;51.850;21.698;2023-04-19T13:56:36;13.10;;;6.90;;
50309;SDS011;36207;51.850;21.698;2023-04-19T13:59:02;12.90;;;7.00;;
50309;SDS011;36207;51.850;21.698;2023-04-19T14:01:28;12.00;;;6.60;;
50309;SDS011;36207;51.850;21.698;2023-04-19T14:03:54;11.90;;;6.60;;
50309;SDS011;36207;51.850;21.698;2023-04-19T14:06:20;12.10;;;6.80;;
50309;SDS011;36207;51.850;21.698;2023-04-19T14:08:46;14.80;;;7.00;;
50309;SDS011;36207;51.850;21.698;2023-04-19T14:11:12;11.40;;;6.60;;
50309;SDS011;36207;51.850;21.698;2023-04-19T14:13:38;10.60;;;6.60;;
50309;SDS011;36207;51.850;21.698;2023-04-19T14:16:04;10.60;;;6.30;;
50309;SDS011;36207;51.850;21.698;2023-04-19T14:18:30;8.60;;;6.40;;
50309;SDS011;36207;51.850;21.698;2023-04-19T14:20:55;11.10;;;6.40;;
50309;SDS011;36207;51.850;21.698;2023-04-19T14:23:21;11.80;;;6.90;;
50309;SDS011;36207;51.850;21.698;2023-04-19T14:25:47;9.70;;;5.90;;
50309;SDS011;36207;51.850;21.698;2023-04-19T14:28:13;11.10;;;6.10;;
50309;SDS011;36207;51.850;21.698;2023-04-19T14:30:42;10.70;;;5.70;;
50309;SDS011;36207;51.850;21.698;2023-04-19T14:33:08;9.40;;;5.60;;
50309;SDS011;36207;51.850;21.698;2023-04-19T14:35:34;9.60;;;5.50;;
50309;SDS011;36207;51.850;21.698;2023-04-19T14:38:00;9.30;;;5.30;;
50309;SDS011;36207;51.850;21.698;2023-04-19T14:40:26;7.50;;;5.20;;
50309;SDS011;36207;51.850;21.698;2023-04-19T14:42:52;9.80;;;5.50;;